Time;durP1;ratioP1;P1;durP2;ratioP2;P2;SDS_P1;SDS_P2;PMS_P1;PMS_P2;Temp;Humidity;BMP_temperature;BMP_pressure;BME280_temperature;BME280_humidity;BME280_pressure;Samples;Min_cycle;Max_cycle;Signal;HPM_P1;HPM_P2
2022/05/04 00:01:40;;;;;;;7.60;4.45;;;13.90;76.30;;;;;;5026368;28;20052;-73
2022/05/04 00:04:07;;;;;;;6.47;4.15;;;13.90;76.30;;;;;;5007601;28;20471;-73
2022/05/04 00:06:38;;;;;;;8.88;4.70;;;13.90;76.30;;;;;;5036303;28;20056;-72
2022/05/04 00:09:07;;;;;;;6.53;4.35;;;13.90;76.30;;;;;;5043925;28;20119;-72
2022/05/04 00:11:35;;;;;;;5.70;3.60;;;13.90;76.40;;;;;;5050528;28;20052;-73
2022/05/04 00:14:02;;;;;;;12.43;4.43;;;13.80;76.50;;;;;;5043507;28;20506;-72
2022/05/04 00:16:29;;;;;;;7.45;4.05;;;13.80;76.60;;;;;;5040704;28;20071;-73
2022/05/04 00:18:56;;;;;;;5.47;3.40;;;13.80;76.80;;;;;;5036321;28;20091;-73
2022/05/04 00:21:23;;;;;;;6.88;3.25;;;13.80;76.70;;;;;;5039409;28;20055;-73
2022/05/04 00:23:50;;;;;;;6.30;3.75;;;13.80;76.70;;;;;;5042386;28;20037;-73
2022/05/04 00:26:17;;;;;;;5.85;3.22;;;13.80;76.70;;;;;;5047544;28;20502;-72
2022/05/04 00:28:45;;;;;;;7.93;3.85;;;13.80;76.70;;;;;;5040968;28;20051;-72
2022/05/04 00:31:12;;;;;;;6.90;3.90;;;13.80;76.90;;;;;;5048047;28;20140;-72
2022/05/04 00:33:39;;;;;;;5.82;3.85;;;13.80;76.80;;;;;;5050262;28;20399;-72
2022/05/04 00:36:06;;;;;;;8.10;4.43;;;13.70;76.80;;;;;;5050472;28;20055;-73
2022/05/04 00:38:33;;;;;;;6.35;3.55;;;13.80;76.70;;;;;;5050922;28;20085;-72
2022/05/04 00:41:01;;;;;;;7.15;4.10;;;13.80;76.80;;;;;;5043007;28;20048;-72
2022/05/04 00:43:29;;;;;;;6.78;3.78;;;13.70;76.80;;;;;;5039380;28;20107;-72
2022/05/04 00:45:57;;;;;;;6.93;3.95;;;13.80;76.70;;;;;;5045938;28;20119;-73
2022/05/04 00:48:24;;;;;;;6.70;3.80;;;13.80;76.60;;;;;;5049825;28;20048;-72
2022/05/04 00:50:52;;;;;;;6.38;3.75;;;13.80;76.60;;;;;;5049864;28;20063;-72
2022/05/04 00:53:20;;;;;;;6.40;3.53;;;13.70;76.70;;;;;;5050787;28;20037;-72
2022/05/04 00:55:48;;;;;;;5.72;3.53;;;13.70;76.70;;;;;;5051020;28;20045;-73
2022/05/04 01:01:03;;;;;;;6.93;3.97;;;13.70;76.70;;;;;;5047733;28;20526;-72
2022/05/04 01:03:30;;;;;;;6.78;3.75;;;13.70;76.80;;;;;;5050620;28;20037;-72
2022/05/04 01:05:57;;;;;;;6.00;3.42;;;13.70;76.60;;;;;;5050801;28;20393;-72
2022/05/04 01:08:24;;;;;;;5.85;4.05;;;13.70;76.60;;;;;;5050573;28;20059;-72
2022/05/04 01:10:51;;;;;;;7.40;3.75;;;13.70;76.40;;;;;;5050934;28;20198;-73
2022/05/04 01:13:20;;;;;;;7.43;3.90;;;13.70;76.50;;;;;;5050697;28;20052;-72
2022/05/04 01:15:47;;;;;;;6.05;3.83;;;13.70;76.30;;;;;;5051885;28;20037;-72
2022/05/04 01:18:16;;;;;;;6.60;3.55;;;13.70;76.10;;;;;;5040460;28;20059;-72
2022/05/04 01:20:43;;;;;;;5.47;3.28;;;13.70;76.00;;;;;;5046039;28;20044;-73
2022/05/04 01:23:12;;;;;;;8.13;4.30;;;13.70;76.00;;;;;;5043550;28;20495;-72
2022/05/04 01:25:39;;;;;;;5.68;3.40;;;13.70;75.90;;;;;;5040232;28;20064;-73
2022/05/04 01:28:07;;;;;;;5.07;3.35;;;13.70;75.70;;;;;;5043259;28;20482;-72
2022/05/04 01:30:34;;;;;;;5.53;3.10;;;13.70;75.60;;;;;;5045352;28;20055;-73
2022/05/04 01:33:02;;;;;;;7.25;3.33;;;13.60;75.40;;;;;;5036075;28;20110;-72
2022/05/04 01:35:29;;;;;;;6.68;3.70;;;13.60;75.00;;;;;;5040807;28;20060;-72
2022/05/04 01:37:56;;;;;;;5.10;2.88;;;13.60;74.60;;;;;;5036741;28;20041;-73
2022/05/04 01:40:24;;;;;;;6.03;3.15;;;13.60;74.70;;;;;;5040847;28;20041;-73
2022/05/04 01:42:51;;;;;;;6.55;3.35;;;13.60;74.70;;;;;;5046690;28;20517;-72
2022/05/04 01:45:18;;;;;;;6.20;3.35;;;13.60;74.70;;;;;;5058024;28;20048;-72
2022/05/04 01:47:48;;;;;;;5.68;3.20;;;13.60;74.70;;;;;;5059346;28;20048;-73
2022/05/04 01:50:15;;;;;;;6.20;3.78;;;13.50;74.90;;;;;;5055887;28;20049;-73
2022/05/04 01:52:42;;;;;;;6.95;2.88;;;13.60;74.90;;;;;;5060324;28;22079;-72
2022/05/04 01:55:10;;;;;;;6.45;2.97;;;13.50;75.10;;;;;;5056018;28;20127;-72
2022/05/04 01:57:38;;;;;;;5.50;2.88;;;13.50;74.90;;;;;;5056367;28;20121;-71
2022/05/04 02:00:08;;;;;;;7.00;3.25;;;13.40;75.00;;;;;;5054420;28;20065;-70
2022/05/04 02:02:42;;;;;;;5.22;3.10;;;13.50;75.00;;;;;;5060810;28;22656;-73
2022/05/04 02:05:10;;;;;;;5.55;2.80;;;13.50;75.00;;;;;;5055426;28;20051;-73
2022/05/04 02:07:37;;;;;;;7.38;3.17;;;13.40;74.90;;;;;;5052558;28;20037;-72
2022/05/04 02:10:05;;;;;;;6.70;3.30;;;13.40;74.90;;;;;;5054778;28;20053;-73
2022/05/04 02:12:34;;;;;;;6.15;3.30;;;13.40;74.90;;;;;;5061818;28;20048;-71
2022/05/04 02:15:03;;;;;;;5.15;2.88;;;13.40;75.10;;;;;;5055882;28;20047;-72
2022/05/04 02:17:30;;;;;;;5.72;3.22;;;13.40;75.20;;;;;;5054994;28;21174;-73
2022/05/04 02:19:56;;;;;;;6.28;2.95;;;13.40;75.40;;;;;;5059408;28;20040;-72
2022/05/04 02:22:24;;;;;;;5.70;2.70;;;13.40;75.40;;;;;;5053547;28;20048;-73
2022/05/04 02:24:50;;;;;;;5.82;3.00;;;13.30;75.50;;;;;;5055068;28;20040;-72
2022/05/04 02:27:17;;;;;;;5.88;3.05;;;13.30;75.60;;;;;;5054770;28;20035;-72
2022/05/04 02:29:44;;;;;;;7.18;3.35;;;13.30;75.60;;;;;;5055635;28;20053;-72
2022/05/04 02:32:13;;;;;;;5.63;3.33;;;13.30;75.80;;;;;;5058461;28;20379;-71
2022/05/04 02:40:07;;;;;;;8.60;3.30;;;13.20;75.60;;;;;;5057711;28;20574;-72
2022/05/04 02:42:34;;;;;;;7.18;3.20;;;13.20;75.30;;;;;;5056544;28;20052;-72
2022/05/04 02:45:01;;;;;;;6.55;3.05;;;13.30;75.20;;;;;;5054194;28;20056;-71
2022/05/04 02:47:29;;;;;;;5.28;2.92;;;13.30;75.10;;;;;;5058889;28;20141;-72
2022/05/04 02:49:56;;;;;;;6.13;3.17;;;13.30;75.10;;;;;;5057789;28;20048;-73
2022/05/04 02:52:23;;;;;;;5.47;2.90;;;13.30;75.10;;;;;;5056526;28;20047;-72
2022/05/04 02:54:50;;;;;;;6.90;3.35;;;13.40;74.80;;;;;;5054260;28;20040;-72
2022/05/04 02:57:17;;;;;;;6.57;3.05;;;13.30;74.60;;;;;;5069443;28;20048;-72
2022/05/04 02:59:44;;;;;;;4.28;3.03;;;13.30;74.90;;;;;;5069434;28;20040;-72
2022/05/04 03:02:29;;;;;;;4.95;3.05;;;13.30;75.00;;;;;;5064875;28;20076;-71
2022/05/04 03:04:58;;;;;;;5.30;2.92;;;13.30;75.10;;;;;;5065353;28;20054;-72
2022/05/04 03:07:26;;;;;;;6.82;3.28;;;13.20;75.20;;;;;;5055839;28;20071;-72
2022/05/04 03:09:53;;;;;;;6.05;3.20;;;13.20;75.00;;;;;;5056596;28;20102;-72
2022/05/04 03:12:19;;;;;;;6.63;3.33;;;13.20;74.70;;;;;;5059965;28;20048;-73
2022/05/04 03:14:46;;;;;;;5.70;3.20;;;13.30;74.40;;;;;;5056031;28;20170;-72
2022/05/04 03:17:13;;;;;;;7.72;2.97;;;13.30;74.20;;;;;;5056504;28;20123;-73
2022/05/04 03:19:40;;;;;;;6.18;3.22;;;13.30;74.20;;;;;;5058473;28;20148;-71
2022/05/04 03:22:09;;;;;;;7.28;3.08;;;13.30;74.20;;;;;;5057890;28;20051;-72
2022/05/04 03:24:36;;;;;;;4.32;2.60;;;13.20;74.20;;;;;;5054631;28;20033;-72
2022/05/04 03:27:04;;;;;;;7.30;3.05;;;13.30;74.10;;;;;;5053048;28;20032;-72
2022/05/04 03:29:31;;;;;;;6.22;3.60;;;13.30;74.00;;;;;;5052182;28;20596;-71
2022/05/04 03:31:58;;;;;;;8.27;3.47;;;13.30;74.00;;;;;;5054514;28;20988;-71
2022/05/04 03:34:25;;;;;;;7.10;3.10;;;13.20;74.10;;;;;;5058195;28;20700;-72
2022/05/04 03:36:54;;;;;;;5.70;3.22;;;13.20;74.20;;;;;;5054358;28;20060;-71
2022/05/04 03:39:22;;;;;;;5.00;2.80;;;13.20;74.30;;;;;;5055313;28;20044;-72
2022/05/04 03:41:49;;;;;;;7.63;3.17;;;13.20;74.10;;;;;;5048418;28;20051;-72
2022/05/04 03:44:16;;;;;;;6.00;3.00;;;13.20;73.70;;;;;;5054748;28;20043;-72
2022/05/04 03:46:44;;;;;;;5.18;3.17;;;13.20;73.30;;;;;;5054179;28;20481;-72
2022/05/04 03:49:12;;;;;;;5.55;2.80;;;13.20;72.90;;;;;;5060296;28;20047;-72
2022/05/04 03:51:39;;;;;;;5.65;3.45;;;13.20;72.70;;;;;;5056531;28;20041;-72
2022/05/04 03:54:06;;;;;;;5.22;3.13;;;13.20;72.50;;;;;;5036055;28;20137;-71
2022/05/04 03:56:35;;;;;;;7.10;3.20;;;13.20;72.30;;;;;;5053506;28;20131;-72
2022/05/04 03:59:03;;;;;;;7.00;3.28;;;13.20;72.30;;;;;;5053609;28;20767;-72
2022/05/04 04:01:31;;;;;;;6.35;3.10;;;13.20;72.20;;;;;;5051715;28;20040;-71
2022/05/04 04:03:58;;;;;;;5.97;2.50;;;13.10;72.60;;;;;;5053085;28;20037;-72
2022/05/04 04:06:25;;;;;;;5.85;2.60;;;13.20;73.00;;;;;;5060226;28;21104;-71
2022/05/04 04:08:53;;;;;;;7.18;3.00;;;13.10;73.30;;;;;;5060036;28;20080;-72
2022/05/04 04:11:20;;;;;;;6.20;2.85;;;13.10;73.50;;;;;;5058854;28;20044;-72
2022/05/04 04:13:49;;;;;;;6.97;3.15;;;13.10;73.20;;;;;;5058742;28;20045;-71
2022/05/04 04:16:17;;;;;;;5.97;2.88;;;13.10;72.90;;;;;;5058535;28;20055;-72
2022/05/04 04:18:44;;;;;;;10.48;3.03;;;13.10;72.70;;;;;;5060756;28;20041;-72
2022/05/04 04:23:56;;;;;;;9.48;2.85;;;13.20;72.50;;;;;;5057513;28;20611;-72
2022/05/04 04:26:23;;;;;;;4.00;2.50;;;13.20;72.30;;;;;;5039430;28;20045;-72
2022/05/04 04:28:51;;;;;;;5.93;3.05;;;13.20;72.40;;;;;;5057329;28;20118;-72
2022/05/04 04:31:19;;;;;;;5.22;2.88;;;13.20;72.30;;;;;;5056248;28;20037;-71
2022/05/04 04:33:46;;;;;;;7.30;3.00;;;13.20;72.20;;;;;;5040947;28;20110;-72
2022/05/04 04:36:13;;;;;;;5.85;3.22;;;13.20;72.20;;;;;;5044279;28;20258;-71
2022/05/04 04:38:40;;;;;;;5.20;2.45;;;13.20;72.10;;;;;;5056005;28;20044;-72
2022/05/04 04:41:06;;;;;;;4.82;2.60;;;13.20;72.00;;;;;;5057943;28;20049;-72
2022/05/04 04:43:33;;;;;;;6.90;3.03;;;13.30;71.80;;;;;;5040093;28;20375;-71
2022/05/04 04:46:02;;;;;;;5.57;2.50;;;13.30;71.70;;;;;;5032837;28;20040;-71
2022/05/04 04:48:29;;;;;;;6.00;3.08;;;13.30;71.60;;;;;;5021960;28;20056;-72
2022/05/04 04:50:56;;;;;;;4.55;2.58;;;13.30;71.40;;;;;;5039931;28;20044;-72
2022/05/04 04:53:22;;;;;;;5.40;3.28;;;13.30;71.30;;;;;;5038511;28;20043;-71
2022/05/04 04:55:50;;;;;;;7.05;3.10;;;13.30;71.20;;;;;;5036020;28;20057;-72
2022/05/04 04:58:17;;;;;;;6.85;2.65;;;13.30;71.20;;;;;;5037171;28;20048;-72
2022/05/04 05:00:44;;;;;;;6.97;2.53;;;13.30;71.30;;;;;;5044917;28;20494;-72
2022/05/04 05:03:12;;;;;;;4.95;2.60;;;13.40;71.10;;;;;;5044747;28;20060;-71
2022/05/04 05:05:41;;;;;;;5.47;2.75;;;13.40;71.10;;;;;;5048403;28;20041;-72
2022/05/04 05:08:09;;;;;;;5.65;2.53;;;13.50;71.00;;;;;;5033468;28;20044;-71
2022/05/04 05:10:36;;;;;;;5.60;3.20;;;13.40;71.10;;;;;;5048765;28;20079;-70
2022/05/04 05:13:03;;;;;;;5.15;2.92;;;13.40;71.10;;;;;;5045441;28;20049;-72
2022/05/04 05:18:16;;;;;;;7.47;3.47;;;13.50;71.00;;;;;;5047116;28;20688;-71
2022/05/04 05:20:43;;;;;;;7.60;2.80;;;13.50;71.10;;;;;;5047909;28;20048;-71
2022/05/04 05:23:10;;;;;;;6.40;2.78;;;13.50;71.10;;;;;;5039928;28;20482;-72
2022/05/04 05:25:37;;;;;;;5.45;2.80;;;13.50;71.10;;;;;;5028343;28;20525;-71
2022/05/04 05:28:05;;;;;;;5.97;2.65;;;13.60;71.00;;;;;;5043153;28;20049;-72
2022/05/04 05:30:32;;;;;;;4.40;2.13;;;13.60;71.00;;;;;;5029831;28;20387;-71
2022/05/04 05:32:59;;;;;;;6.47;2.60;;;13.60;71.00;;;;;;5045503;28;20064;-72
2022/05/04 05:35:27;;;;;;;7.10;3.00;;;13.60;71.10;;;;;;5046381;28;20037;-72
2022/05/04 05:37:55;;;;;;;6.25;2.95;;;13.60;71.20;;;;;;5042045;28;20419;-73
2022/05/04 05:40:22;;;;;;;5.90;2.63;;;13.60;71.00;;;;;;5042706;28;20066;-72
2022/05/04 05:42:49;;;;;;;9.00;3.03;;;13.60;71.00;;;;;;5045931;28;20056;-72
2022/05/04 05:45:16;;;;;;;7.45;3.35;;;13.60;71.10;;;;;;5041638;28;20107;-73
2022/05/04 05:47:43;;;;;;;6.10;2.85;;;13.60;71.30;;;;;;5042717;28;20076;-70
2022/05/04 05:50:11;;;;;;;5.25;2.42;;;13.60;70.90;;;;;;5035974;28;20970;-72
2022/05/04 05:52:39;;;;;;;4.55;2.63;;;13.60;70.90;;;;;;5036897;28;20063;-72
2022/05/04 05:55:07;;;;;;;6.18;2.88;;;13.60;70.70;;;;;;5040818;28;20399;-71
2022/05/04 05:57:34;;;;;;;5.68;2.67;;;13.70;70.60;;;;;;5030821;28;20041;-72
2022/05/04 06:00:04;;;;;;;6.25;2.83;;;13.70;70.70;;;;;;5034157;28;20057;-72
2022/05/04 06:02:38;;;;;;;5.80;2.85;;;13.70;70.70;;;;;;5043456;28;20042;-72
2022/05/04 06:05:06;;;;;;;5.18;2.85;;;13.70;70.40;;;;;;5037705;28;20408;-73
2022/05/04 06:07:33;;;;;;;6.80;3.03;;;13.70;70.60;;;;;;5040612;28;20154;-71
2022/05/04 06:10:02;;;;;;;7.72;3.05;;;13.70;70.50;;;;;;5043970;28;20047;-72
2022/05/04 06:12:29;;;;;;;9.02;2.60;;;13.70;70.40;;;;;;5040666;28;20102;-72
2022/05/04 06:14:56;;;;;;;6.03;3.00;;;13.70;70.50;;;;;;5043450;28;20055;-72
2022/05/04 06:17:23;;;;;;;7.10;2.97;;;13.80;70.40;;;;;;5042049;28;20095;-72
2022/05/04 06:19:50;;;;;;;5.80;2.90;;;13.80;70.50;;;;;;5050611;28;20052;-72
2022/05/04 06:22:17;;;;;;;6.65;3.60;;;13.90;70.50;;;;;;5049996;28;20133;-71
2022/05/04 06:24:44;;;;;;;4.95;3.00;;;13.90;70.20;;;;;;5040922;28;20053;-72
2022/05/04 06:27:13;;;;;;;7.28;3.35;;;13.90;70.20;;;;;;5047349;28;20049;-73
2022/05/04 06:35:09;;;;;;;6.50;3.30;;;14.00;69.90;;;;;;5047122;28;20399;-73
2022/05/04 06:37:39;;;;;;;8.20;3.47;;;14.10;69.90;;;;;;5048764;28;20064;-72
2022/05/04 06:40:07;;;;;;;8.70;3.60;;;14.10;70.30;;;;;;5045910;28;20041;-72
2022/05/04 06:42:36;;;;;;;9.90;4.65;;;14.20;70.20;;;;;;5055752;28;20064;-71
2022/05/04 06:45:05;;;;;;;8.55;4.78;;;14.20;70.20;;;;;;5070180;28;20044;-72
2022/05/04 06:47:31;;;;;;;8.95;4.43;;;14.20;69.80;;;;;;5070456;28;20119;-72
2022/05/04 06:49:59;;;;;;;10.32;3.78;;;14.30;69.80;;;;;;5070488;28;20053;-72
2022/05/04 06:52:26;;;;;;;9.32;3.50;;;14.30;69.60;;;;;;5065755;28;20102;-72
2022/05/04 06:54:53;;;;;;;8.75;3.88;;;14.30;69.70;;;;;;5069582;28;20079;-73
2022/05/04 06:57:22;;;;;;;9.02;3.78;;;14.40;69.50;;;;;;5069651;28;20127;-71
2022/05/04 06:59:50;;;;;;;8.02;3.85;;;14.50;69.40;;;;;;5068066;28;20123;-72
2022/05/04 07:02:17;;;;;;;9.48;3.95;;;14.50;69.20;;;;;;5063167;28;20042;-72
2022/05/04 07:04:44;;;;;;;7.78;3.65;;;14.50;69.00;;;;;;5051127;28;20071;-72
2022/05/04 07:07:11;;;;;;;10.18;4.53;;;14.50;68.90;;;;;;5069611;28;20041;-72
2022/05/04 07:09:38;;;;;;;10.60;3.95;;;14.50;68.90;;;;;;5063548;28;20166;-72
2022/05/04 07:12:06;;;;;;;7.38;3.65;;;14.50;68.60;;;;;;5057113;28;20053;-72
2022/05/04 07:14:33;;;;;;;9.45;4.55;;;14.50;68.70;;;;;;5056353;28;20037;-73
2022/05/04 07:17:01;;;;;;;9.60;3.90;;;14.60;68.40;;;;;;5055033;28;20040;-71
2022/05/04 07:19:29;;;;;;;8.93;4.22;;;14.60;68.20;;;;;;5056681;28;20032;-72
2022/05/04 07:21:56;;;;;;;7.45;3.22;;;14.60;68.20;;;;;;5057106;28;20037;-72
2022/05/04 07:24:23;;;;;;;6.75;3.88;;;14.60;68.50;;;;;;5054383;28;20405;-71
2022/05/04 07:26:49;;;;;;;6.75;3.25;;;14.70;68.20;;;;;;5055336;28;20052;-72
2022/05/04 07:29:16;;;;;;;7.25;3.30;;;14.70;68.10;;;;;;5054043;28;20063;-73
2022/05/04 07:31:43;;;;;;;5.45;3.22;;;14.80;68.00;;;;;;5060916;28;20064;-73
2022/05/04 07:34:14;;;;;;;8.07;3.33;;;14.80;68.10;;;;;;5053220;28;20044;-72
2022/05/04 07:36:41;;;;;;;6.80;3.92;;;14.80;68.00;;;;;;5057080;28;20041;-73
2022/05/04 07:39:08;;;;;;;8.50;3.53;;;14.90;68.10;;;;;;5070365;28;20045;-72
2022/05/04 07:44:34;;;;;;;7.30;3.75;;;14.90;67.90;;;;;;4990297;28;20105;-72
2022/05/04 07:47:01;;;;;;;9.48;3.97;;;15.00;67.80;;;;;;4991249;28;20823;-73
2022/05/04 07:49:30;;;;;;;10.20;4.20;;;15.00;67.70;;;;;;5018054;28;20506;-72
2022/05/04 07:51:57;;;;;;;6.35;3.40;;;15.10;67.70;;;;;;5051013;28;20055;-73
2022/05/04 07:54:24;;;;;;;7.13;3.53;;;15.10;68.10;;;;;;5050893;28;20055;-72
2022/05/04 07:56:52;;;;;;;5.25;3.08;;;15.10;68.00;;;;;;5050869;28;20084;-73
2022/05/04 07:59:19;;;;;;;6.32;2.75;;;15.10;68.10;;;;;;5049443;28;20124;-72
2022/05/04 08:04:33;;;;;;;7.88;3.00;;;15.20;67.80;;;;;;5037341;28;20477;-71
2022/05/04 08:07:00;;;;;;;8.27;2.90;;;15.20;67.80;;;;;;5029982;28;20049;-70
2022/05/04 08:09:27;;;;;;;5.18;3.15;;;15.20;68.10;;;;;;5036599;28;20479;-71
2022/05/04 08:11:54;;;;;;;6.03;2.90;;;15.20;68.40;;;;;;5035650;28;20045;-71
2022/05/04 08:14:20;;;;;;;6.75;3.10;;;15.30;68.50;;;;;;5038900;28;20041;-72
2022/05/04 08:16:47;;;;;;;12.30;3.95;;;15.30;68.50;;;;;;5037990;28;20052;-72
2022/05/04 08:19:14;;;;;;;15.60;3.35;;;15.40;68.20;;;;;;5037496;28;20045;-72
2022/05/04 08:21:43;;;;;;;14.15;3.78;;;15.50;67.80;;;;;;5042036;28;20194;-72
2022/05/04 08:24:10;;;;;;;14.07;3.08;;;15.60;68.10;;;;;;5031970;28;20045;-70
2022/05/04 08:26:37;;;;;;;6.28;3.40;;;15.60;67.90;;;;;;5045520;28;20051;-71
2022/05/04 08:29:05;;;;;;;17.83;3.75;;;15.70;67.80;;;;;;5050605;28;20118;-73
2022/05/04 08:31:33;;;;;;;9.93;3.30;;;15.80;67.50;;;;;;5049761;28;20096;-72
2022/05/04 08:34:00;;;;;;;10.63;3.30;;;15.90;67.80;;;;;;5051451;28;20047;-73
2022/05/04 08:36:27;;;;;;;10.88;3.17;;;16.00;67.60;;;;;;5050744;28;20037;-71
2022/05/04 08:38:55;;;;;;;13.57;3.70;;;16.10;67.60;;;;;;5023928;28;20478;-71
2022/05/04 08:41:23;;;;;;;8.20;3.60;;;16.30;67.80;;;;;;5033008;28;20072;-71
2022/05/04 08:43:51;;;;;;;7.05;2.92;;;16.50;67.50;;;;;;5060845;28;20124;-72
2022/05/04 08:46:21;;;;;;;6.10;2.95;;;16.60;66.30;;;;;;5062450;28;20049;-72
2022/05/04 08:48:50;;;;;;;6.88;2.95;;;16.70;66.60;;;;;;5071788;28;20508;-71
2022/05/04 08:51:19;;;;;;;6.68;3.65;;;16.90;66.50;;;;;;5053100;28;20411;-73
2022/05/04 08:53:46;;;;;;;5.50;2.72;;;17.00;66.10;;;;;;5056855;28;20047;-73
2022/05/04 08:56:14;;;;;;;5.63;2.90;;;17.10;66.50;;;;;;5057890;28;20520;-72
2022/05/04 08:58:42;;;;;;;4.68;2.55;;;17.10;66.40;;;;;;5056858;28;20033;-73
2022/05/04 09:01:09;;;;;;;8.02;3.13;;;17.10;66.30;;;;;;5067438;28;20420;-72
2022/05/04 09:03:38;;;;;;;7.90;3.65;;;17.10;65.80;;;;;;5071586;28;20489;-72
2022/05/04 09:06:05;;;;;;;5.65;3.03;;;17.10;65.90;;;;;;5061214;28;20767;-71
2022/05/04 09:08:52;;;;;;;7.55;3.45;;;17.20;65.90;;;;;;5051227;28;20111;-72
2022/05/04 09:11:21;;;;;;;7.47;3.42;;;17.20;66.00;;;;;;5058569;28;20044;-73
2022/05/04 09:13:49;;;;;;;6.18;3.50;;;17.30;65.40;;;;;;5057247;28;20052;-71
2022/05/04 09:16:26;;;;;;;5.82;3.63;;;17.30;64.90;;;;;;5055734;28;20040;-72
2022/05/04 09:18:53;;;;;;;6.72;3.30;;;17.30;65.10;;;;;;5053195;28;20041;-72
2022/05/04 09:21:22;;;;;;;8.63;4.18;;;17.40;64.90;;;;;;5057809;28;20307;-71
2022/05/04 09:23:53;;;;;;;5.17;2.97;;;17.50;65.40;;;;;;5052691;28;20069;-72
2022/05/04 09:26:23;;;;;;;7.38;3.15;;;17.60;65.10;;;;;;5056909;28;20498;-73
2022/05/04 09:28:51;;;;;;;4.65;3.03;;;17.60;65.30;;;;;;5056712;28;20121;-72
2022/05/04 09:31:24;;;;;;;5.68;3.40;;;17.60;65.00;;;;;;5057340;28;20123;-72
2022/05/04 09:33:54;;;;;;;7.68;2.97;;;17.70;65.40;;;;;;5056534;28;20532;-73
2022/05/04 09:36:35;;;;;;;7.57;3.63;;;17.70;65.30;;;;;;5060566;28;20040;-72
2022/05/04 09:44:57;;;;;;;8.65;4.28;;;17.90;64.70;;;;;;5058630;28;20044;-74
2022/05/04 09:47:25;;;;;;;8.98;3.45;;;18.00;64.00;;;;;;5039774;28;20398;-72
2022/05/04 09:50:03;;;;;;;7.50;3.42;;;18.10;64.80;;;;;;5058329;28;20048;-73
2022/05/04 09:52:40;;;;;;;13.15;5.90;;;18.20;64.30;;;;;;5057074;28;20094;-72
2022/05/04 09:55:14;;;;;;;10.75;6.80;;;18.30;64.00;;;;;;5054581;28;20040;-73
2022/05/04 09:57:44;;;;;;;11.23;5.47;;;18.40;63.60;;;;;;5038786;28;20452;-74
2022/05/04 10:00:13;;;;;;;9.45;6.05;;;18.50;63.00;;;;;;5057974;28;20048;-72
2022/05/04 10:02:41;;;;;;;8.50;5.10;;;18.60;63.20;;;;;;5056295;28;20037;-73
2022/05/04 10:05:10;;;;;;;7.25;4.43;;;18.70;62.50;;;;;;5062364;28;20140;-72
2022/05/04 10:07:38;;;;;;;13.55;5.30;;;18.80;62.80;;;;;;5059244;28;20064;-72
2022/05/04 10:10:07;;;;;;;8.35;4.35;;;18.90;62.00;;;;;;5061254;28;20382;-72
2022/05/04 10:12:39;;;;;;;7.67;4.10;;;19.00;62.20;;;;;;5056916;28;20044;-72
2022/05/04 10:15:10;;;;;;;6.90;4.07;;;19.00;62.30;;;;;;5061732;28;20048;-72
2022/05/04 10:17:42;;;;;;;10.35;5.40;;;19.10;62.50;;;;;;5058426;28;20033;-73
2022/05/04 10:20:14;;;;;;;8.13;4.75;;;19.10;62.60;;;;;;5064514;28;20482;-73
2022/05/04 10:22:44;;;;;;;10.75;4.55;;;19.10;62.50;;;;;;5058458;28;20051;-74
2022/05/04 10:25:15;;;;;;;9.00;4.82;;;19.10;62.60;;;;;;5054146;28;20090;-74
2022/05/04 10:27:44;;;;;;;9.80;4.80;;;19.20;62.60;;;;;;5055326;28;20049;-71
2022/05/04 10:30:31;;;;;;;8.05;3.65;;;19.20;62.70;;;;;;5054258;28;20044;-72
2022/05/04 10:32:59;;;;;;;7.78;3.67;;;19.20;61.90;;;;;;5058253;28;20045;-72
2022/05/04 10:35:34;;;;;;;7.75;3.75;;;19.30;61.70;;;;;;5056982;28;20048;-73
2022/05/04 10:38:12;;;;;;;6.68;4.20;;;19.20;61.90;;;;;;5057658;28;20040;-71
2022/05/04 10:40:43;;;;;;;7.53;3.72;;;19.30;62.40;;;;;;5053378;28;20663;-72
2022/05/04 10:43:12;;;;;;;5.40;3.33;;;19.40;62.80;;;;;;5054819;28;20052;-71
2022/05/04 10:45:43;;;;;;;5.50;3.58;;;19.40;62.00;;;;;;5039078;28;20048;-73
2022/05/04 10:48:24;;;;;;;5.90;3.40;;;19.40;62.30;;;;;;5055136;28;20053;-72
2022/05/04 10:50:53;;;;;;;5.90;3.28;;;19.50;62.20;;;;;;5055981;28;20120;-73
2022/05/04 10:53:22;;;;;;;5.97;3.63;;;19.40;61.90;;;;;;5054910;28;20048;-72
2022/05/04 10:55:57;;;;;;;6.97;3.20;;;19.50;61.60;;;;;;5055096;28;20046;-73
2022/05/04 10:58:38;;;;;;;7.93;4.60;;;19.50;61.70;;;;;;5052726;28;20041;-72
2022/05/04 11:01:16;;;;;;;8.43;4.40;;;19.60;61.20;;;;;;5051111;28;20126;-73
2022/05/04 11:04:04;;;;;;;7.00;4.25;;;19.60;60.80;;;;;;5054294;28;20628;-71
2022/05/04 11:06:33;;;;;;;5.78;3.30;;;19.70;60.70;;;;;;5059466;28;20040;-72
2022/05/04 11:09:06;;;;;;;5.45;3.15;;;19.70;60.80;;;;;;5059406;28;20144;-71
2022/05/04 11:11:33;;;;;;;6.10;3.38;;;19.70;60.90;;;;;;5056499;28;20127;-73
2022/05/04 11:14:01;;;;;;;7.10;4.10;;;19.80;60.80;;;;;;5061257;28;20080;-74
2022/05/04 11:16:29;;;;;;;6.22;3.55;;;19.90;60.40;;;;;;5061092;28;20120;-73
2022/05/04 11:18:56;;;;;;;6.40;3.28;;;19.90;60.40;;;;;;5061292;28;20040;-72
2022/05/04 11:21:23;;;;;;;6.43;3.08;;;19.90;60.20;;;;;;5054120;28;20498;-74
2022/05/04 11:23:52;;;;;;;8.82;5.22;;;20.00;60.40;;;;;;5058183;28;20090;-74
2022/05/04 11:26:21;;;;;;;6.97;3.63;;;20.10;60.10;;;;;;5049001;28;20044;-72
2022/05/04 11:28:49;;;;;;;6.43;3.67;;;20.10;59.60;;;;;;5056340;28;20064;-72
2022/05/04 11:31:17;;;;;;;10.55;4.72;;;20.10;59.80;;;;;;5030607;28;20060;-74
2022/05/04 11:33:47;;;;;;;7.53;4.55;;;20.10;59.10;;;;;;5060777;28;20470;-74
2022/05/04 11:36:15;;;;;;;5.80;3.83;;;20.20;59.10;;;;;;5055854;28;20045;-72
2022/05/04 11:38:46;;;;;;;6.85;4.00;;;20.10;58.80;;;;;;5056315;28;20045;-72
2022/05/04 11:41:13;;;;;;;6.03;3.88;;;20.30;58.80;;;;;;5056463;28;20045;-73
2022/05/04 11:43:40;;;;;;;9.10;3.95;;;20.30;58.40;;;;;;5037510;28;20053;-73
2022/05/04 11:46:10;;;;;;;5.95;3.35;;;20.30;58.60;;;;;;5022387;28;20120;-72
2022/05/04 11:48:38;;;;;;;7.53;4.05;;;20.30;58.40;;;;;;5038342;28;20544;-74
2022/05/04 11:51:07;;;;;;;6.68;3.58;;;20.30;58.40;;;;;;5039458;28;20045;-73
2022/05/04 11:53:35;;;;;;;5.17;3.67;;;20.40;58.30;;;;;;5034849;28;20156;-72
2022/05/04 11:56:04;;;;;;;7.05;4.38;;;20.40;58.20;;;;;;5016955;28;20662;-72
2022/05/04 11:58:32;;;;;;;7.68;4.35;;;20.40;58.20;;;;;;5034299;28;20068;-73
2022/05/04 12:01:01;;;;;;;7.40;3.75;;;20.40;58.10;;;;;;5035568;28;20037;-73
2022/05/04 12:03:30;;;;;;;7.20;4.00;;;20.50;57.80;;;;;;5028592;28;20058;-73
2022/05/04 12:06:00;;;;;;;6.35;3.88;;;20.50;57.70;;;;;;5018918;28;20111;-72
2022/05/04 12:08:29;;;;;;;6.30;3.58;;;20.50;57.70;;;;;;5021030;28;20045;-73
2022/05/04 12:10:56;;;;;;;8.60;4.13;;;20.50;57.80;;;;;;5024475;28;20060;-71
2022/05/04 12:13:25;;;;;;;5.60;3.65;;;20.50;57.60;;;;;;5028360;28;20041;-72
2022/05/04 12:15:58;;;;;;;6.38;3.88;;;20.50;57.70;;;;;;5025057;28;20051;-72
2022/05/04 12:18:29;;;;;;;7.07;3.85;;;20.60;57.40;;;;;;5033192;28;20041;-73
2022/05/04 12:20:58;;;;;;;6.72;4.03;;;20.60;57.50;;;;;;5038662;28;20148;-72
2022/05/04 12:23:25;;;;;;;6.93;3.63;;;20.60;57.40;;;;;;5032589;28;20037;-73
2022/05/04 12:25:55;;;;;;;6.55;3.63;;;20.60;57.30;;;;;;5032229;28;20095;-74
2022/05/04 12:28:22;;;;;;;6.25;3.53;;;20.60;57.10;;;;;;5034847;28;20061;-73
2022/05/04 12:33:37;;;;;;;8.35;4.13;;;20.70;56.90;;;;;;5035126;28;20052;-73
2022/05/04 12:36:07;;;;;;;5.32;3.60;;;21.00;56.80;;;;;;5031550;28;20972;-75
2022/05/04 12:38:36;;;;;;;5.97;3.67;;;21.00;56.60;;;;;;5036753;28;20041;-72
2022/05/04 12:41:05;;;;;;;6.68;3.70;;;21.10;56.30;;;;;;5030042;28;20045;-73
2022/05/04 12:43:35;;;;;;;6.78;3.80;;;21.10;56.20;;;;;;5035121;28;20053;-73
2022/05/04 12:46:03;;;;;;;6.50;3.35;;;21.00;56.50;;;;;;5036264;28;20041;-72
2022/05/04 12:48:31;;;;;;;7.25;4.03;;;21.00;56.90;;;;;;5040146;28;20124;-73
2022/05/04 12:50:59;;;;;;;6.65;3.80;;;21.00;56.70;;;;;;5040437;28;20051;-72
2022/05/04 12:53:27;;;;;;;6.65;3.90;;;21.00;56.70;;;;;;5038072;28;20518;-73
2022/05/04 12:58:41;;;;;;;6.55;4.50;;;21.00;57.50;;;;;;5038942;28;20497;-71
2022/05/04 13:01:08;;;;;;;6.60;4.30;;;21.00;57.00;;;;;;5036100;28;20048;-72
2022/05/04 13:03:36;;;;;;;5.85;3.70;;;20.90;56.90;;;;;;5042457;28;20045;-73
2022/05/04 13:06:04;;;;;;;7.68;5.03;;;20.90;57.00;;;;;;5052382;28;20044;-74
2022/05/04 13:08:31;;;;;;;7.22;4.15;;;20.90;56.50;;;;;;5047990;28;20045;-73
2022/05/04 13:10:59;;;;;;;6.55;4.15;;;20.80;56.70;;;;;;5036760;28;20045;-72
2022/05/04 13:13:26;;;;;;;7.32;4.20;;;20.80;56.60;;;;;;5037404;28;20394;-73
2022/05/04 13:15:54;;;;;;;6.95;4.28;;;20.80;56.90;;;;;;5042173;28;20064;-74
2022/05/04 13:18:22;;;;;;;7.30;3.90;;;20.80;57.30;;;;;;5038032;28;20048;-73
2022/05/04 13:20:51;;;;;;;6.25;3.95;;;20.80;58.30;;;;;;5043947;28;20538;-73
2022/05/04 13:23:20;;;;;;;5.50;3.60;;;20.80;58.90;;;;;;5040620;28;20056;-73
2022/05/04 13:25:47;;;;;;;7.45;4.13;;;20.80;59.90;;;;;;5035665;28;20049;-72
2022/05/04 13:28:14;;;;;;;7.85;4.45;;;20.80;61.30;;;;;;5037695;28;20479;-72